RYR3232 LFRN-LEMD
Flight info
| Callsign | RYR3232 |
|---|---|
| Flight time | 1h 27m |
| Altitude | 37000 |
| Route | GODAN UN862 TERPO DCT PEXOD DCT NENEM P75 NEA/N0457F330 DCT NONTU |
| Aircraft | B738/M-SDE2E3FGHIRWXY/LB1 |
Departure
| Time | 2026-04-12 08:31 |
|---|---|
| Airport | Rennes-Saint-Jacques Airport (LFRN) |
Arrival
| Time | 2026-04-12 09:58 |
|---|---|
| Airport | Adolfo Suárez Madrid–Barajas Airport (LEMD) |
| Time | Latitude | Longitude | Altitude | Speed | Heading |
|---|---|---|---|---|---|
| 2026-04-12 08:05 | 48.06882 | -1.72488 | 132 ft | 0 kts | 225° |
| 2026-04-12 08:24 | 48.06896 | -1.72467 | 132 ft | 4 kts | 219° |
| 2026-04-12 08:24 | 48.06914 | -1.72448 | 132 ft | 2 kts | 206° |
| 2026-04-12 08:25 | 48.06925 | -1.72442 | 132 ft | 2 kts | 179° |
| 2026-04-12 08:25 | 48.06936 | -1.72447 | 132 ft | 2 kts | 132° |
| 2026-04-12 08:25 | 48.06943 | -1.72460 | 132 ft | 2 kts | 113° |
| 2026-04-12 08:25 | 48.06946 | -1.72476 | 132 ft | 2 kts | 105° |
| 2026-04-12 08:26 | 48.06948 | -1.72487 | 132 ft | 0 kts | 103° |
| 2026-04-12 08:28 | 48.06944 | -1.72459 | 132 ft | 7 kts | 103° |
| 2026-04-12 08:28 | 48.06930 | -1.72353 | 132 ft | 14 kts | 99° |
| 2026-04-12 08:28 | 48.06938 | -1.72190 | 132 ft | 19 kts | 69° |
| 2026-04-12 08:28 | 48.07048 | -1.72057 | 126 ft | 19 kts | 50° |
| 2026-04-12 08:29 | 48.07086 | -1.71883 | 128 ft | 11 kts | 99° |
| 2026-04-12 08:29 | 48.07070 | -1.71847 | 127 ft | 3 kts | 149° |
| 2026-04-12 08:29 | 48.07041 | -1.71845 | 130 ft | 6 kts | 187° |
| 2026-04-12 08:29 | 48.07020 | -1.71877 | 128 ft | 2 kts | 270° |
| 2026-04-12 08:30 | 48.07027 | -1.71904 | 129 ft | 0 kts | 278° |
| 2026-04-12 08:30 | 48.07029 | -1.71926 | 127 ft | 19 kts | 278° |
| 2026-04-12 08:30 | 48.07105 | -1.72556 | 131 ft | 102 kts | 281° |
| 2026-04-12 08:30 | 48.07278 | -1.73953 | 152 ft | 166 kts | 279° |
| 2026-04-12 08:31 | 48.07538 | -1.75628 | 1089 ft | 159 kts | 281° |
| 2026-04-12 08:31 | 48.07755 | -1.77183 | 2255 ft | 147 kts | 278° |
| 2026-04-12 08:31 | 48.07844 | -1.78794 | 2793 ft | 171 kts | 263° |
| 2026-04-12 08:31 | 48.07457 | -1.80621 | 3098 ft | 200 kts | 239° |
| 2026-04-12 08:32 | 48.06384 | -1.82126 | 3361 ft | 227 kts | 213° |
| 2026-04-12 08:32 | 48.04954 | -1.83381 | 3710 ft | 247 kts | 212° |
| 2026-04-12 08:32 | 48.03477 | -1.84701 | 4511 ft | 252 kts | 213° |
| 2026-04-12 08:32 | 48.01984 | -1.86065 | 5507 ft | 252 kts | 214° |
| 2026-04-12 08:33 | 48.00487 | -1.87454 | 6427 ft | 255 kts | 214° |
| 2026-04-12 08:33 | 47.98976 | -1.88864 | 7307 ft | 257 kts | 214° |
| 2026-04-12 08:33 | 47.97455 | -1.90288 | 8155 ft | 260 kts | 214° |
| 2026-04-12 08:33 | 47.95798 | -1.91417 | 8995 ft | 268 kts | 195° |
| 2026-04-12 08:34 | 47.93940 | -1.91769 | 9890 ft | 271 kts | 189° |
| 2026-04-12 08:34 | 47.92059 | -1.92035 | 10513 ft | 282 kts | 189° |
| 2026-04-12 08:34 | 47.90018 | -1.92318 | 10716 ft | 307 kts | 188° |
| 2026-04-12 08:34 | 47.87806 | -1.92627 | 10912 ft | 331 kts | 188° |
| 2026-04-12 08:35 | 47.85441 | -1.92961 | 11094 ft | 352 kts | 188° |
| 2026-04-12 08:35 | 47.82957 | -1.93312 | 11565 ft | 363 kts | 188° |
| 2026-04-12 08:35 | 47.80433 | -1.93668 | 12288 ft | 365 kts | 188° |
| 2026-04-12 08:35 | 47.77899 | -1.94029 | 13080 ft | 367 kts | 188° |
| 2026-04-12 08:36 | 47.75351 | -1.94394 | 13836 ft | 369 kts | 188° |
| 2026-04-12 08:36 | 47.72785 | -1.94763 | 14501 ft | 371 kts | 188° |
| 2026-04-12 08:36 | 47.70242 | -1.95130 | 15185 ft | 373 kts | 188° |
| 2026-04-12 08:36 | 47.67655 | -1.95503 | 15879 ft | 374 kts | 189° |
| 2026-04-12 08:37 | 47.65061 | -1.95876 | 16530 ft | 376 kts | 189° |
| 2026-04-12 08:37 | 47.62434 | -1.96031 | 17177 ft | 381 kts | 182° |
| 2026-04-12 08:37 | 47.59778 | -1.95795 | 17830 ft | 384 kts | 180° |
| 2026-04-12 08:37 | 47.57105 | -1.95430 | 18439 ft | 387 kts | 179° |
| 2026-04-12 08:38 | 47.54417 | -1.95056 | 18987 ft | 388 kts | 180° |
| 2026-04-12 08:38 | 47.51759 | -1.94716 | 19552 ft | 389 kts | 180° |
| 2026-04-12 08:38 | 47.49063 | -1.94401 | 20110 ft | 389 kts | 180° |
| 2026-04-12 08:38 | 47.46360 | -1.94106 | 20652 ft | 390 kts | 181° |
| 2026-04-12 08:39 | 47.43647 | -1.93820 | 21178 ft | 391 kts | 181° |
| 2026-04-12 08:39 | 47.40923 | -1.93535 | 21687 ft | 393 kts | 181° |
| 2026-04-12 08:39 | 47.38195 | -1.93266 | 22190 ft | 393 kts | 183° |
| 2026-04-12 08:39 | 47.35481 | -1.93463 | 22688 ft | 390 kts | 191° |
| 2026-04-12 08:40 | 47.32854 | -1.94149 | 23186 ft | 388 kts | 197° |
| 2026-04-12 08:40 | 47.30294 | -1.95370 | 23644 ft | 387 kts | 203° |
| 2026-04-12 08:40 | 47.27778 | -1.96784 | 24017 ft | 388 kts | 203° |
| 2026-04-12 08:40 | 47.25257 | -1.98207 | 24405 ft | 388 kts | 203° |
| 2026-04-12 08:41 | 47.22732 | -1.99628 | 24784 ft | 389 kts | 202° |
| 2026-04-12 08:41 | 47.20202 | -2.01045 | 25152 ft | 390 kts | 202° |
| 2026-04-12 08:41 | 47.17665 | -2.02459 | 25513 ft | 390 kts | 202° |
| 2026-04-12 08:41 | 47.15122 | -2.03872 | 25857 ft | 391 kts | 202° |
| 2026-04-12 08:42 | 47.12570 | -2.05285 | 26194 ft | 392 kts | 202° |
| 2026-04-12 08:42 | 47.10051 | -2.06677 | 26520 ft | 393 kts | 202° |
| 2026-04-12 08:42 | 47.07492 | -2.08090 | 26836 ft | 394 kts | 201° |
| 2026-04-12 08:42 | 47.04926 | -2.09504 | 27161 ft | 394 kts | 201° |
| 2026-04-12 08:43 | 47.02364 | -2.10914 | 27556 ft | 392 kts | 201° |
| 2026-04-12 08:43 | 46.99820 | -2.12313 | 28043 ft | 388 kts | 201° |
| 2026-04-12 08:43 | 46.97302 | -2.13696 | 28560 ft | 385 kts | 201° |
| 2026-04-12 08:43 | 46.94807 | -2.15065 | 29044 ft | 381 kts | 201° |
| 2026-04-12 08:44 | 46.92327 | -2.16425 | 29485 ft | 379 kts | 201° |
| 2026-04-12 08:44 | 46.89863 | -2.17774 | 29934 ft | 377 kts | 200° |
| 2026-04-12 08:44 | 46.87449 | -2.19096 | 30344 ft | 374 kts | 200° |
| 2026-04-12 08:44 | 46.85014 | -2.20427 | 30642 ft | 374 kts | 201° |
| 2026-04-12 08:45 | 46.82575 | -2.21760 | 30917 ft | 374 kts | 201° |
| 2026-04-12 08:45 | 46.80135 | -2.23091 | 31210 ft | 374 kts | 201° |
| 2026-04-12 08:45 | 46.77707 | -2.24415 | 31521 ft | 372 kts | 201° |
| 2026-04-12 08:45 | 46.75282 | -2.25736 | 31831 ft | 372 kts | 201° |
| 2026-04-12 08:46 | 46.72861 | -2.27053 | 32121 ft | 371 kts | 201° |
| 2026-04-12 08:46 | 46.70445 | -2.28366 | 32392 ft | 371 kts | 201° |
| 2026-04-12 08:46 | 46.65650 | -2.30969 | 32942 ft | 370 kts | 201° |
| 2026-04-12 08:47 | 46.63243 | -2.32273 | 33231 ft | 369 kts | 201° |
| 2026-04-12 08:47 | 46.60841 | -2.33574 | 33507 ft | 368 kts | 201° |
| 2026-04-12 08:47 | 46.58442 | -2.34872 | 33777 ft | 368 kts | 201° |
| 2026-04-12 08:47 | 46.56043 | -2.36168 | 34048 ft | 367 kts | 201° |
| 2026-04-12 08:48 | 46.53648 | -2.37462 | 34244 ft | 368 kts | 201° |
| 2026-04-12 08:48 | 46.51243 | -2.38759 | 34385 ft | 370 kts | 201° |
| 2026-04-12 08:48 | 46.48853 | -2.40048 | 34492 ft | 372 kts | 201° |
| 2026-04-12 08:48 | 46.46419 | -2.41359 | 34622 ft | 374 kts | 201° |
| 2026-04-12 08:49 | 46.43977 | -2.42672 | 34766 ft | 375 kts | 201° |
| 2026-04-12 08:49 | 46.41526 | -2.43990 | 34904 ft | 377 kts | 201° |
| 2026-04-12 08:49 | 46.39062 | -2.45313 | 35047 ft | 378 kts | 202° |
| 2026-04-12 08:49 | 46.36593 | -2.46637 | 35180 ft | 380 kts | 202° |
| 2026-04-12 08:50 | 46.34112 | -2.47966 | 35317 ft | 381 kts | 202° |
| 2026-04-12 08:50 | 46.31655 | -2.49281 | 35449 ft | 382 kts | 202° |
| 2026-04-12 08:50 | 46.29154 | -2.50619 | 35584 ft | 384 kts | 202° |
| 2026-04-12 08:50 | 46.26649 | -2.51958 | 35721 ft | 385 kts | 202° |
| 2026-04-12 08:51 | 46.24130 | -2.53302 | 35839 ft | 387 kts | 202° |
| 2026-04-12 08:51 | 46.21601 | -2.54651 | 35959 ft | 388 kts | 202° |
| 2026-04-12 08:51 | 46.19067 | -2.56001 | 36085 ft | 389 kts | 202° |
| 2026-04-12 08:51 | 46.16518 | -2.57357 | 36188 ft | 391 kts | 202° |
| 2026-04-12 08:52 | 46.13960 | -2.58717 | 36294 ft | 393 kts | 202° |
| 2026-04-12 08:52 | 46.11394 | -2.60080 | 36440 ft | 393 kts | 202° |
| 2026-04-12 08:52 | 46.08823 | -2.61444 | 36556 ft | 395 kts | 202° |
| 2026-04-12 08:52 | 46.06277 | -2.62794 | 36669 ft | 396 kts | 202° |
| 2026-04-12 08:53 | 46.03691 | -2.64163 | 36817 ft | 396 kts | 202° |
| 2026-04-12 08:53 | 46.01099 | -2.65534 | 36934 ft | 398 kts | 202° |
| 2026-04-12 08:53 | 45.98499 | -2.66908 | 37055 ft | 399 kts | 202° |
| 2026-04-12 08:54 | 45.93274 | -2.69666 | 37103 ft | 401 kts | 202° |
| 2026-04-12 08:54 | 45.88037 | -2.72423 | 37114 ft | 400 kts | 202° |
| 2026-04-12 08:55 | 45.82842 | -2.75153 | 37109 ft | 400 kts | 202° |
| 2026-04-12 08:55 | 45.77612 | -2.77896 | 37110 ft | 400 kts | 202° |
| 2026-04-12 08:56 | 45.72386 | -2.80633 | 37117 ft | 400 kts | 202° |
| 2026-04-12 08:56 | 45.67156 | -2.83365 | 37112 ft | 400 kts | 202° |
| 2026-04-12 08:57 | 45.61957 | -2.86077 | 37117 ft | 400 kts | 202° |
| 2026-04-12 08:57 | 45.56723 | -2.88801 | 37118 ft | 401 kts | 202° |
| 2026-04-12 08:58 | 45.51482 | -2.91523 | 37117 ft | 401 kts | 202° |
| 2026-04-12 08:58 | 45.46239 | -2.94241 | 37120 ft | 401 kts | 202° |
| 2026-04-12 08:59 | 45.40989 | -2.96957 | 37121 ft | 401 kts | 202° |
| 2026-04-12 08:59 | 45.35774 | -2.99650 | 37125 ft | 402 kts | 202° |
| 2026-04-12 09:00 | 45.30399 | -3.01859 | 37124 ft | 405 kts | 192° |
| 2026-04-12 09:00 | 45.24754 | -3.02517 | 37122 ft | 408 kts | 188° |
| 2026-04-12 09:01 | 45.19088 | -3.03080 | 37122 ft | 408 kts | 188° |
| 2026-04-12 09:01 | 45.13472 | -3.03661 | 37126 ft | 408 kts | 188° |
| 2026-04-12 09:02 | 45.07808 | -3.04261 | 37135 ft | 408 kts | 188° |
| 2026-04-12 09:02 | 45.02147 | -3.04863 | 37130 ft | 408 kts | 188° |
| 2026-04-12 09:03 | 44.96486 | -3.05464 | 37135 ft | 408 kts | 188° |
| 2026-04-12 09:03 | 44.90861 | -3.06059 | 37132 ft | 408 kts | 188° |
| 2026-04-12 09:04 | 44.85195 | -3.06658 | 37142 ft | 408 kts | 188° |
| 2026-04-12 09:04 | 44.79534 | -3.07255 | 37137 ft | 408 kts | 188° |
| 2026-04-12 09:05 | 44.73871 | -3.07851 | 37137 ft | 408 kts | 188° |
| 2026-04-12 09:05 | 44.68206 | -3.08447 | 37139 ft | 408 kts | 188° |
| 2026-04-12 09:06 | 44.62583 | -3.09036 | 37137 ft | 408 kts | 188° |
| 2026-04-12 09:06 | 44.56920 | -3.09629 | 37139 ft | 408 kts | 188° |
| 2026-04-12 09:07 | 44.51255 | -3.10221 | 37139 ft | 408 kts | 188° |
| 2026-04-12 09:07 | 44.45591 | -3.10811 | 37140 ft | 408 kts | 188° |
| 2026-04-12 09:08 | 44.39962 | -3.11397 | 37136 ft | 409 kts | 188° |
| 2026-04-12 09:08 | 44.34292 | -3.11986 | 37144 ft | 409 kts | 188° |
| 2026-04-12 09:09 | 44.28616 | -3.12574 | 37143 ft | 409 kts | 188° |
| 2026-04-12 09:09 | 44.22976 | -3.13158 | 37138 ft | 409 kts | 188° |
| 2026-04-12 09:10 | 44.17293 | -3.13745 | 37147 ft | 410 kts | 188° |
| 2026-04-12 09:10 | 44.11607 | -3.14331 | 37147 ft | 410 kts | 188° |
| 2026-04-12 09:11 | 44.05930 | -3.15009 | 37138 ft | 408 kts | 192° |
| 2026-04-12 09:11 | 44.00523 | -3.17159 | 37149 ft | 404 kts | 201° |
| 2026-04-12 09:12 | 43.95256 | -3.19791 | 37137 ft | 405 kts | 201° |
| 2026-04-12 09:12 | 43.89947 | -3.22414 | 37140 ft | 405 kts | 201° |
| 2026-04-12 09:13 | 43.84626 | -3.25020 | 37145 ft | 406 kts | 201° |
| 2026-04-12 09:13 | 43.79291 | -3.27620 | 37144 ft | 407 kts | 201° |
| 2026-04-12 09:14 | 43.73982 | -3.30203 | 37142 ft | 407 kts | 201° |
| 2026-04-12 09:14 | 43.68632 | -3.32800 | 37142 ft | 408 kts | 201° |
| 2026-04-12 09:15 | 43.63272 | -3.35398 | 37143 ft | 408 kts | 201° |
| 2026-04-12 09:15 | 43.57909 | -3.37992 | 37140 ft | 409 kts | 201° |
| 2026-04-12 09:16 | 43.52542 | -3.40583 | 37143 ft | 409 kts | 201° |
| 2026-04-12 09:16 | 43.47210 | -3.43152 | 37142 ft | 409 kts | 201° |
| 2026-04-12 09:17 | 43.41838 | -3.45737 | 37139 ft | 409 kts | 201° |
| 2026-04-12 09:17 | 43.36462 | -3.48318 | 37147 ft | 409 kts | 201° |
| 2026-04-12 09:18 | 43.31084 | -3.50895 | 37148 ft | 410 kts | 201° |
| 2026-04-12 09:18 | 43.25735 | -3.53454 | 37128 ft | 409 kts | 201° |
| 2026-04-12 09:19 | 43.20358 | -3.56020 | 37150 ft | 410 kts | 201° |
| 2026-04-12 09:19 | 43.14973 | -3.58587 | 37137 ft | 409 kts | 201° |
| 2026-04-12 09:20 | 43.06926 | -3.62412 | 37135 ft | 410 kts | 201° |
| 2026-04-12 09:21 | 42.98825 | -3.66253 | 37129 ft | 411 kts | 201° |
| 2026-04-12 09:21 | 42.93417 | -3.68811 | 37121 ft | 411 kts | 201° |
| 2026-04-12 09:22 | 42.88001 | -3.71369 | 37127 ft | 412 kts | 201° |
| 2026-04-12 09:22 | 42.82618 | -3.73906 | 37109 ft | 412 kts | 201° |
| 2026-04-12 09:23 | 42.77201 | -3.76454 | 37121 ft | 412 kts | 201° |
| 2026-04-12 09:23 | 42.71779 | -3.78999 | 37115 ft | 413 kts | 201° |
| 2026-04-12 09:24 | 42.66348 | -3.81536 | 37107 ft | 413 kts | 201° |
| 2026-04-12 09:24 | 42.60911 | -3.84071 | 37095 ft | 413 kts | 201° |
| 2026-04-12 09:25 | 42.55507 | -3.86587 | 37087 ft | 413 kts | 201° |
| 2026-04-12 09:25 | 42.50062 | -3.89118 | 37072 ft | 414 kts | 201° |
| 2026-04-12 09:26 | 42.44613 | -3.91647 | 37075 ft | 414 kts | 201° |
| 2026-04-12 09:26 | 42.39165 | -3.94171 | 37069 ft | 414 kts | 201° |
| 2026-04-12 09:27 | 42.33747 | -3.96676 | 37077 ft | 414 kts | 201° |
| 2026-04-12 09:27 | 42.28293 | -3.99193 | 37074 ft | 414 kts | 201° |
| 2026-04-12 09:28 | 42.22834 | -4.01707 | 37080 ft | 414 kts | 201° |
| 2026-04-12 09:28 | 42.17374 | -4.04218 | 37077 ft | 415 kts | 201° |
| 2026-04-12 09:29 | 42.11950 | -4.06709 | 37081 ft | 415 kts | 201° |
| 2026-04-12 09:29 | 42.09212 | -4.07965 | 36904 ft | 418 kts | 201° |
| 2026-04-12 09:29 | 42.06447 | -4.09232 | 36457 ft | 417 kts | 201° |
| 2026-04-12 09:29 | 42.03692 | -4.10430 | 35796 ft | 416 kts | 197° |
| 2026-04-12 09:30 | 42.00866 | -4.11205 | 35263 ft | 414 kts | 189° |
| 2026-04-12 09:30 | 41.97993 | -4.11549 | 34667 ft | 413 kts | 188° |
| 2026-04-12 09:30 | 41.95137 | -4.11846 | 33864 ft | 413 kts | 187° |
| 2026-04-12 09:30 | 41.92313 | -4.12139 | 33089 ft | 412 kts | 187° |
| 2026-04-12 09:31 | 41.89461 | -4.12443 | 32274 ft | 412 kts | 187° |
| 2026-04-12 09:31 | 41.86608 | -4.12756 | 31549 ft | 411 kts | 187° |
| 2026-04-12 09:31 | 41.83775 | -4.13072 | 30943 ft | 408 kts | 187° |
| 2026-04-12 09:31 | 41.80946 | -4.13392 | 30225 ft | 407 kts | 187° |
| 2026-04-12 09:32 | 41.78128 | -4.13712 | 29603 ft | 404 kts | 187° |
| 2026-04-12 09:32 | 41.75349 | -4.14027 | 29023 ft | 398 kts | 187° |
| 2026-04-12 09:32 | 41.72608 | -4.14338 | 28495 ft | 393 kts | 187° |
| 2026-04-12 09:32 | 41.69902 | -4.14645 | 27974 ft | 388 kts | 187° |
| 2026-04-12 09:33 | 41.67263 | -4.14945 | 27455 ft | 384 kts | 187° |
| 2026-04-12 09:33 | 41.64610 | -4.15246 | 26923 ft | 381 kts | 187° |
| 2026-04-12 09:33 | 41.61978 | -4.15544 | 26410 ft | 380 kts | 187° |
| 2026-04-12 09:33 | 41.59314 | -4.15848 | 25903 ft | 391 kts | 187° |
| 2026-04-12 09:34 | 41.56561 | -4.16162 | 25368 ft | 402 kts | 187° |
| 2026-04-12 09:34 | 41.53790 | -4.16474 | 24814 ft | 398 kts | 187° |
| 2026-04-12 09:34 | 41.51040 | -4.16782 | 24274 ft | 395 kts | 187° |
| 2026-04-12 09:34 | 41.48326 | -4.17086 | 23958 ft | 386 kts | 187° |
| 2026-04-12 09:35 | 41.45672 | -4.17384 | 23701 ft | 383 kts | 187° |
| 2026-04-12 09:35 | 41.43019 | -4.17685 | 23469 ft | 394 kts | 187° |
| 2026-04-12 09:35 | 41.40258 | -4.17998 | 23193 ft | 400 kts | 187° |
| 2026-04-12 09:35 | 41.37501 | -4.18308 | 22937 ft | 397 kts | 187° |
| 2026-04-12 09:36 | 41.34758 | -4.18615 | 22697 ft | 394 kts | 187° |
| 2026-04-12 09:36 | 41.32033 | -4.18920 | 22464 ft | 392 kts | 187° |
| 2026-04-12 09:36 | 41.29316 | -4.19225 | 22233 ft | 391 kts | 187° |
| 2026-04-12 09:36 | 41.26606 | -4.19529 | 22010 ft | 391 kts | 187° |
| 2026-04-12 09:37 | 41.23889 | -4.19769 | 21777 ft | 391 kts | 186° |
| 2026-04-12 09:37 | 41.21203 | -4.19933 | 21553 ft | 392 kts | 185° |
| 2026-04-12 09:37 | 41.18478 | -4.20035 | 21304 ft | 392 kts | 181° |
| 2026-04-12 09:37 | 41.15785 | -4.19579 | 20813 ft | 392 kts | 170° |
| 2026-04-12 09:38 | 41.13177 | -4.18481 | 20186 ft | 394 kts | 163° |
| 2026-04-12 09:38 | 41.10609 | -4.17185 | 19494 ft | 396 kts | 162° |
| 2026-04-12 09:38 | 41.08054 | -4.15874 | 19134 ft | 390 kts | 162° |
| 2026-04-12 09:38 | 41.05537 | -4.14587 | 18797 ft | 385 kts | 162° |
| 2026-04-12 09:39 | 41.03023 | -4.13313 | 18495 ft | 390 kts | 162° |
| 2026-04-12 09:39 | 41.00499 | -4.12047 | 18154 ft | 396 kts | 162° |
| 2026-04-12 09:39 | 40.97921 | -4.10761 | 17794 ft | 394 kts | 162° |
| 2026-04-12 09:39 | 40.95374 | -4.09493 | 17461 ft | 390 kts | 162° |
| 2026-04-12 09:40 | 40.92842 | -4.08236 | 17128 ft | 387 kts | 162° |
| 2026-04-12 09:40 | 40.90331 | -4.06992 | 16810 ft | 384 kts | 162° |
| 2026-04-12 09:40 | 40.87836 | -4.05758 | 16504 ft | 383 kts | 162° |
| 2026-04-12 09:40 | 40.85351 | -4.04529 | 16160 ft | 381 kts | 162° |
| 2026-04-12 09:41 | 40.82871 | -4.03306 | 15867 ft | 381 kts | 162° |
| 2026-04-12 09:41 | 40.80378 | -4.02077 | 15575 ft | 383 kts | 162° |
| 2026-04-12 09:41 | 40.77886 | -4.00849 | 15251 ft | 381 kts | 162° |
| 2026-04-12 09:41 | 40.75447 | -3.99647 | 14942 ft | 377 kts | 162° |
| 2026-04-12 09:42 | 40.73006 | -3.98445 | 14652 ft | 373 kts | 162° |
| 2026-04-12 09:42 | 40.70580 | -3.97251 | 14370 ft | 371 kts | 162° |
| 2026-04-12 09:42 | 40.68165 | -3.96065 | 14080 ft | 370 kts | 162° |
| 2026-04-12 09:43 | 40.60925 | -3.92514 | 13147 ft | 370 kts | 162° |
| 2026-04-12 09:43 | 40.58513 | -3.91333 | 12835 ft | 369 kts | 162° |
| 2026-04-12 09:43 | 40.56107 | -3.90154 | 12522 ft | 368 kts | 161° |
| 2026-04-12 09:44 | 40.53718 | -3.88985 | 12234 ft | 366 kts | 161° |
| 2026-04-12 09:44 | 40.51371 | -3.87838 | 11951 ft | 364 kts | 161° |
| 2026-04-12 09:44 | 40.49002 | -3.86681 | 11653 ft | 361 kts | 161° |
| 2026-04-12 09:44 | 40.46664 | -3.85539 | 11360 ft | 354 kts | 161° |
| 2026-04-12 09:45 | 40.44397 | -3.84432 | 11069 ft | 341 kts | 161° |
| 2026-04-12 09:45 | 40.42200 | -3.83361 | 10818 ft | 333 kts | 161° |
| 2026-04-12 09:45 | 40.40050 | -3.82314 | 10552 ft | 326 kts | 161° |
| 2026-04-12 09:45 | 40.37941 | -3.81288 | 10294 ft | 320 kts | 161° |
| 2026-04-12 09:46 | 40.35869 | -3.80281 | 10043 ft | 315 kts | 160° |
| 2026-04-12 09:46 | 40.33895 | -3.79321 | 9947 ft | 296 kts | 160° |
| 2026-04-12 09:46 | 40.31999 | -3.78398 | 9741 ft | 283 kts | 160° |
| 2026-04-12 09:46 | 40.30189 | -3.77520 | 9393 ft | 278 kts | 160° |
| 2026-04-12 09:47 | 40.28374 | -3.76640 | 9130 ft | 277 kts | 160° |
| 2026-04-12 09:47 | 40.26570 | -3.75767 | 8886 ft | 276 kts | 160° |
| 2026-04-12 09:47 | 40.24864 | -3.74629 | 8626 ft | 277 kts | 139° |
| 2026-04-12 09:47 | 40.23709 | -3.72642 | 8434 ft | 275 kts | 114° |
| 2026-04-12 09:48 | 40.23048 | -3.70308 | 8232 ft | 274 kts | 107° |
| 2026-04-12 09:48 | 40.22461 | -3.67931 | 8001 ft | 275 kts | 107° |
| 2026-04-12 09:48 | 40.21879 | -3.65552 | 7779 ft | 275 kts | 107° |
| 2026-04-12 09:48 | 40.21292 | -3.63174 | 7547 ft | 275 kts | 107° |
| 2026-04-12 09:49 | 40.20698 | -3.60802 | 7331 ft | 274 kts | 107° |
| 2026-04-12 09:49 | 40.20116 | -3.58494 | 7068 ft | 267 kts | 107° |
| 2026-04-12 09:49 | 40.19535 | -3.56211 | 6751 ft | 261 kts | 107° |
| 2026-04-12 09:49 | 40.18966 | -3.53985 | 6456 ft | 255 kts | 107° |
| 2026-04-12 09:50 | 40.18409 | -3.51810 | 6143 ft | 250 kts | 107° |
| 2026-04-12 09:50 | 40.17862 | -3.49678 | 5825 ft | 245 kts | 107° |
| 2026-04-12 09:50 | 40.17421 | -3.47556 | 5501 ft | 240 kts | 90° |
| 2026-04-12 09:50 | 40.17761 | -3.45476 | 5221 ft | 234 kts | 59° |
| 2026-04-12 09:51 | 40.18762 | -3.43820 | 4942 ft | 232 kts | 43° |
| 2026-04-12 09:51 | 40.19954 | -3.42391 | 4643 ft | 233 kts | 40° |
| 2026-04-12 09:51 | 40.21222 | -3.41071 | 4343 ft | 232 kts | 31° |
| 2026-04-12 09:51 | 40.22598 | -3.40050 | 4260 ft | 224 kts | 27° |
| 2026-04-12 09:52 | 40.23930 | -3.39110 | 4114 ft | 216 kts | 28° |
| 2026-04-12 09:52 | 40.25288 | -3.38422 | 4021 ft | 204 kts | 8° |
| 2026-04-12 09:52 | 40.26703 | -3.38417 | 4001 ft | 205 kts | 355° |
| 2026-04-12 09:52 | 40.28108 | -3.38660 | 3973 ft | 201 kts | 353° |
| 2026-04-12 09:53 | 40.29485 | -3.38923 | 3988 ft | 199 kts | 352° |
| 2026-04-12 09:53 | 40.30761 | -3.39611 | 3995 ft | 201 kts | 325° |
| 2026-04-12 09:53 | 40.31881 | -3.40718 | 3980 ft | 201 kts | 326° |
| 2026-04-12 09:53 | 40.32977 | -3.41796 | 3953 ft | 190 kts | 325° |
| 2026-04-12 09:54 | 40.33965 | -3.42796 | 3969 ft | 171 kts | 325° |
| 2026-04-12 09:54 | 40.34891 | -3.43739 | 4012 ft | 173 kts | 325° |
| 2026-04-12 09:54 | 40.35847 | -3.44713 | 4007 ft | 175 kts | 325° |
| 2026-04-12 09:54 | 40.36808 | -3.45694 | 3992 ft | 175 kts | 324° |
| 2026-04-12 09:55 | 40.37765 | -3.46672 | 3982 ft | 173 kts | 325° |
| 2026-04-12 09:55 | 40.38695 | -3.47621 | 3861 ft | 167 kts | 325° |
| 2026-04-12 09:55 | 40.39596 | -3.48542 | 3672 ft | 162 kts | 326° |
| 2026-04-12 09:55 | 40.40452 | -3.49416 | 3479 ft | 155 kts | 327° |
| 2026-04-12 09:56 | 40.41285 | -3.50265 | 3264 ft | 149 kts | 327° |
| 2026-04-12 09:56 | 40.42093 | -3.51089 | 3052 ft | 145 kts | 326° |
| 2026-04-12 09:56 | 40.42894 | -3.51908 | 2892 ft | 152 kts | 324° |
| 2026-04-12 09:56 | 40.43734 | -3.52763 | 2681 ft | 155 kts | 326° |
| 2026-04-12 09:57 | 40.44595 | -3.53628 | 2328 ft | 152 kts | 324° |
| 2026-04-12 09:57 | 40.45413 | -3.54472 | 2114 ft | 147 kts | 323° |
| 2026-04-12 09:57 | 40.46220 | -3.55297 | 2000 ft | 148 kts | 324° |
| 2026-04-12 09:57 | 40.47015 | -3.56100 | 1977 ft | 134 kts | 323° |
| 2026-04-12 09:58 | 40.47507 | -3.56660 | 1992 ft | 45 kts | 298° |
| 2026-04-12 09:58 | 40.47604 | -3.56921 | 1992 ft | 27 kts | 294° |
| 2026-04-12 09:58 | 40.47625 | -3.56973 | 1994 ft | 0 kts | 297° |
| 2026-04-12 10:00 | 40.47624 | -3.56975 | 1994 ft | 0 kts | 275° |
| 2026-04-12 10:00 | 40.47620 | -3.56979 | 1994 ft | 1 kts | 228° |
| 2026-04-12 10:00 | 40.47612 | -3.56975 | 1992 ft | 2 kts | 144° |
| 2026-04-12 10:01 | 40.47578 | -3.56942 | 1993 ft | 10 kts | 144° |
| 2026-04-12 10:01 | 40.47506 | -3.56873 | 1991 ft | 16 kts | 143° |
| 2026-04-12 10:01 | 40.47436 | -3.56799 | 1989 ft | 2 kts | 141° |
| 2026-04-12 10:01 | 40.47408 | -3.56769 | 1989 ft | 9 kts | 140° |
| 2026-04-12 10:02 | 40.47342 | -3.56703 | 1986 ft | 15 kts | 143° |
| 2026-04-12 10:02 | 40.47240 | -3.56603 | 1981 ft | 22 kts | 141° |
| 2026-04-12 10:02 | 40.47100 | -3.56482 | 1978 ft | 27 kts | 160° |
| 2026-04-12 10:02 | 40.46911 | -3.56458 | 1975 ft | 21 kts | 199° |
| 2026-04-12 10:03 | 40.46882 | -3.56571 | 1975 ft | 15 kts | 271° |
| 2026-04-12 10:03 | 40.46875 | -3.56655 | 1978 ft | 7 kts | 229° |
| 2026-04-12 10:03 | 40.46814 | -3.56687 | 1973 ft | 8 kts | 201° |
| 2026-04-12 10:03 | 40.46798 | -3.56717 | 1975 ft | 3 kts | 279° |
| 2026-04-12 10:04 | 40.46823 | -3.56746 | 1975 ft | 7 kts | 327° |
| 2026-04-12 10:04 | 40.46851 | -3.56770 | 1978 ft | 0 kts | 327° |